sensor_id;sensor_type;location;lat;lon;timestamp;P1;durP1;ratioP1;P2;durP2;ratioP2
30000;SDS011;16845;48.670;9.000;2023-06-14T00:01:57;6.90;;;4.53;;
30000;SDS011;16845;48.670;9.000;2023-06-14T00:04:24;7.43;;;4.75;;
30000;SDS011;16845;48.670;9.000;2023-06-14T00:06:52;5.67;;;4.27;;
30000;SDS011;16845;48.670;9.000;2023-06-14T00:09:18;8.63;;;5.00;;
30000;SDS011;16845;48.670;9.000;2023-06-14T00:11:45;9.88;;;5.55;;
30000;SDS011;16845;48.670;9.000;2023-06-14T00:14:12;5.20;;;4.20;;
30000;SDS011;16845;48.670;9.000;2023-06-14T00:16:39;6.07;;;4.78;;
30000;SDS011;16845;48.670;9.000;2023-06-14T00:19:05;8.98;;;4.75;;
30000;SDS011;16845;48.670;9.000;2023-06-14T00:21:32;10.50;;;5.05;;
30000;SDS011;16845;48.670;9.000;2023-06-14T00:24:00;10.52;;;5.10;;
30000;SDS011;16845;48.670;9.000;2023-06-14T00:26:27;7.32;;;4.53;;
30000;SDS011;16845;48.670;9.000;2023-06-14T00:28:53;12.23;;;4.63;;
30000;SDS011;16845;48.670;9.000;2023-06-14T00:31:20;6.93;;;4.60;;
30000;SDS011;16845;48.670;9.000;2023-06-14T00:33:47;7.57;;;4.60;;
30000;SDS011;16845;48.670;9.000;2023-06-14T00:36:13;6.30;;;4.50;;
30000;SDS011;16845;48.670;9.000;2023-06-14T00:38:40;7.13;;;5.15;;
30000;SDS011;16845;48.670;9.000;2023-06-14T00:41:08;8.05;;;5.10;;
30000;SDS011;16845;48.670;9.000;2023-06-14T00:43:34;6.57;;;4.93;;
30000;SDS011;16845;48.670;9.000;2023-06-14T00:46:01;7.03;;;4.85;;
30000;SDS011;16845;48.670;9.000;2023-06-14T00:48:27;8.55;;;5.70;;
30000;SDS011;16845;48.670;9.000;2023-06-14T00:50:55;6.53;;;4.85;;
30000;SDS011;16845;48.670;9.000;2023-06-14T00:53:21;7.83;;;4.90;;
30000;SDS011;16845;48.670;9.000;2023-06-14T00:55:48;8.52;;;4.75;;
30000;SDS011;16845;48.670;9.000;2023-06-14T00:58:16;9.38;;;4.95;;
30000;SDS011;16845;48.670;9.000;2023-06-14T01:00:43;7.95;;;5.22;;
30000;SDS011;16845;48.670;9.000;2023-06-14T01:03:10;7.10;;;4.88;;
30000;SDS011;16845;48.670;9.000;2023-06-14T01:05:36;6.80;;;4.95;;
30000;SDS011;16845;48.670;9.000;2023-06-14T01:08:05;6.40;;;4.82;;
30000;SDS011;16845;48.670;9.000;2023-06-14T01:10:45;7.05;;;4.68;;
30000;SDS011;16845;48.670;9.000;2023-06-14T01:13:19;9.95;;;5.95;;
30000;SDS011;16845;48.670;9.000;2023-06-14T01:15:47;7.32;;;5.90;;
30000;SDS011;16845;48.670;9.000;2023-06-14T01:20:41;7.93;;;5.15;;
30000;SDS011;16845;48.670;9.000;2023-06-14T01:23:09;9.15;;;5.90;;
30000;SDS011;16845;48.670;9.000;2023-06-14T01:25:36;7.10;;;4.72;;
30000;SDS011;16845;48.670;9.000;2023-06-14T01:28:03;7.87;;;5.37;;
30000;SDS011;16845;48.670;9.000;2023-06-14T01:30:32;7.88;;;5.53;;
30000;SDS011;16845;48.670;9.000;2023-06-14T01:32:58;7.57;;;4.70;;
30000;SDS011;16845;48.670;9.000;2023-06-14T01:35:25;8.40;;;5.00;;
30000;SDS011;16845;48.670;9.000;2023-06-14T01:37:52;8.43;;;5.27;;
30000;SDS011;16845;48.670;9.000;2023-06-14T01:40:20;11.45;;;5.07;;
30000;SDS011;16845;48.670;9.000;2023-06-14T01:42:49;7.03;;;5.18;;
30000;SDS011;16845;48.670;9.000;2023-06-14T01:45:17;7.35;;;5.43;;
30000;SDS011;16845;48.670;9.000;2023-06-14T01:47:45;8.23;;;5.30;;
30000;SDS011;16845;48.670;9.000;2023-06-14T01:50:13;7.07;;;5.18;;
30000;SDS011;16845;48.670;9.000;2023-06-14T01:52:40;8.82;;;5.38;;
30000;SDS011;16845;48.670;9.000;2023-06-14T01:55:07;10.97;;;5.17;;
30000;SDS011;16845;48.670;9.000;2023-06-14T01:57:35;6.68;;;5.70;;
30000;SDS011;16845;48.670;9.000;2023-06-14T02:00:02;10.15;;;5.45;;
30000;SDS011;16845;48.670;9.000;2023-06-14T02:02:29;9.40;;;6.05;;
30000;SDS011;16845;48.670;9.000;2023-06-14T02:04:55;8.95;;;4.78;;
30000;SDS011;16845;48.670;9.000;2023-06-14T02:07:22;7.82;;;5.13;;
30000;SDS011;16845;48.670;9.000;2023-06-14T02:09:49;13.43;;;5.68;;
30000;SDS011;16845;48.670;9.000;2023-06-14T02:12:15;6.78;;;5.10;;
30000;SDS011;16845;48.670;9.000;2023-06-14T02:14:43;7.05;;;4.88;;
30000;SDS011;16845;48.670;9.000;2023-06-14T02:17:10;8.38;;;5.80;;
30000;SDS011;16845;48.670;9.000;2023-06-14T02:19:36;9.13;;;5.50;;
30000;SDS011;16845;48.670;9.000;2023-06-14T02:22:03;8.55;;;5.20;;
30000;SDS011;16845;48.670;9.000;2023-06-14T02:24:30;9.30;;;5.75;;
30000;SDS011;16845;48.670;9.000;2023-06-14T02:26:56;8.27;;;5.47;;
30000;SDS011;16845;48.670;9.000;2023-06-14T02:29:23;6.22;;;5.00;;
30000;SDS011;16845;48.670;9.000;2023-06-14T02:31:51;17.73;;;5.88;;
30000;SDS011;16845;48.670;9.000;2023-06-14T02:34:17;9.07;;;6.15;;
30000;SDS011;16845;48.670;9.000;2023-06-14T02:36:44;9.15;;;5.95;;
30000;SDS011;16845;48.670;9.000;2023-06-14T02:39:11;9.50;;;5.38;;
30000;SDS011;16845;48.670;9.000;2023-06-14T02:41:38;8.52;;;5.15;;
30000;SDS011;16845;48.670;9.000;2023-06-14T02:44:05;10.52;;;5.72;;
30000;SDS011;16845;48.670;9.000;2023-06-14T02:46:32;8.90;;;5.78;;
30000;SDS011;16845;48.670;9.000;2023-06-14T02:49:00;7.00;;;5.60;;
30000;SDS011;16845;48.670;9.000;2023-06-14T02:51:27;6.25;;;5.00;;
30000;SDS011;16845;48.670;9.000;2023-06-14T02:53:53;10.73;;;6.20;;
30000;SDS011;16845;48.670;9.000;2023-06-14T02:56:20;10.25;;;5.78;;
30000;SDS011;16845;48.670;9.000;2023-06-14T02:58:46;13.00;;;5.40;;
30000;SDS011;16845;48.670;9.000;2023-06-14T03:01:13;8.90;;;5.57;;
30000;SDS011;16845;48.670;9.000;2023-06-14T03:03:39;7.70;;;5.40;;
30000;SDS011;16845;48.670;9.000;2023-06-14T03:06:07;8.80;;;6.18;;
30000;SDS011;16845;48.670;9.000;2023-06-14T03:08:34;8.65;;;5.25;;
30000;SDS011;16845;48.670;9.000;2023-06-14T03:11:00;10.77;;;5.43;;
30000;SDS011;16845;48.670;9.000;2023-06-14T03:13:27;10.77;;;6.10;;
30000;SDS011;16845;48.670;9.000;2023-06-14T03:15:54;7.73;;;5.83;;
30000;SDS011;16845;48.670;9.000;2023-06-14T03:18:20;9.40;;;5.25;;
30000;SDS011;16845;48.670;9.000;2023-06-14T03:20:49;6.78;;;5.47;;
30000;SDS011;16845;48.670;9.000;2023-06-14T03:23:17;9.63;;;5.85;;
30000;SDS011;16845;48.670;9.000;2023-06-14T03:25:43;6.75;;;4.82;;
30000;SDS011;16845;48.670;9.000;2023-06-14T03:28:10;8.13;;;4.78;;
30000;SDS011;16845;48.670;9.000;2023-06-14T03:30:36;9.63;;;5.07;;
30000;SDS011;16845;48.670;9.000;2023-06-14T03:33:03;8.48;;;5.45;;
30000;SDS011;16845;48.670;9.000;2023-06-14T03:35:30;7.37;;;5.53;;
30000;SDS011;16845;48.670;9.000;2023-06-14T03:37:56;8.02;;;5.20;;
30000;SDS011;16845;48.670;9.000;2023-06-14T03:40:24;9.35;;;5.57;;
30000;SDS011;16845;48.670;9.000;2023-06-14T03:42:51;11.40;;;5.63;;
30000;SDS011;16845;48.670;9.000;2023-06-14T03:45:17;12.95;;;5.82;;
30000;SDS011;16845;48.670;9.000;2023-06-14T03:47:43;7.18;;;5.38;;
30000;SDS011;16845;48.670;9.000;2023-06-14T03:50:10;6.13;;;5.13;;
30000;SDS011;16845;48.670;9.000;2023-06-14T03:52:38;7.53;;;4.90;;
30000;SDS011;16845;48.670;9.000;2023-06-14T03:55:05;8.57;;;5.40;;
30000;SDS011;16845;48.670;9.000;2023-06-14T03:57:36;8.00;;;4.90;;
30000;SDS011;16845;48.670;9.000;2023-06-14T04:00:03;8.98;;;5.20;;
30000;SDS011;16845;48.670;9.000;2023-06-14T04:04:57;7.20;;;5.60;;
30000;SDS011;16845;48.670;9.000;2023-06-14T04:07:25;8.20;;;4.93;;
30000;SDS011;16845;48.670;9.000;2023-06-14T04:09:52;6.75;;;5.00;;
30000;SDS011;16845;48.670;9.000;2023-06-14T04:12:18;9.35;;;5.82;;
30000;SDS011;16845;48.670;9.000;2023-06-14T04:14:46;6.57;;;5.07;;
30000;SDS011;16845;48.670;9.000;2023-06-14T04:17:13;7.00;;;5.40;;
30000;SDS011;16845;48.670;9.000;2023-06-14T04:19:40;7.20;;;5.20;;
30000;SDS011;16845;48.670;9.000;2023-06-14T04:22:06;10.65;;;5.47;;
30000;SDS011;16845;48.670;9.000;2023-06-14T04:24:33;7.25;;;5.07;;
30000;SDS011;16845;48.670;9.000;2023-06-14T04:26:59;8.30;;;4.85;;
30000;SDS011;16845;48.670;9.000;2023-06-14T04:29:26;9.13;;;5.80;;
30000;SDS011;16845;48.670;9.000;2023-06-14T04:31:54;7.72;;;5.22;;
30000;SDS011;16845;48.670;9.000;2023-06-14T04:34:22;7.95;;;5.50;;
30000;SDS011;16845;48.670;9.000;2023-06-14T04:36:49;8.88;;;5.22;;
30000;SDS011;16845;48.670;9.000;2023-06-14T04:39:15;13.57;;;6.27;;
30000;SDS011;16845;48.670;9.000;2023-06-14T04:41:42;6.85;;;4.82;;
30000;SDS011;16845;48.670;9.000;2023-06-14T04:44:08;12.35;;;5.55;;
30000;SDS011;16845;48.670;9.000;2023-06-14T04:46:35;7.15;;;4.75;;
30000;SDS011;16845;48.670;9.000;2023-06-14T04:49:03;14.02;;;5.13;;
30000;SDS011;16845;48.670;9.000;2023-06-14T04:51:29;7.68;;;5.60;;
30000;SDS011;16845;48.670;9.000;2023-06-14T04:53:56;9.93;;;5.38;;
30000;SDS011;16845;48.670;9.000;2023-06-14T04:56:22;7.22;;;5.03;;
30000;SDS011;16845;48.670;9.000;2023-06-14T04:58:49;9.60;;;5.67;;
30000;SDS011;16845;48.670;9.000;2023-06-14T05:01:16;10.85;;;5.50;;
30000;SDS011;16845;48.670;9.000;2023-06-14T05:03:42;7.57;;;5.47;;
30000;SDS011;16845;48.670;9.000;2023-06-14T05:06:10;8.45;;;5.80;;
30000;SDS011;16845;48.670;9.000;2023-06-14T05:08:37;7.53;;;5.38;;
30000;SDS011;16845;48.670;9.000;2023-06-14T05:11:04;11.13;;;5.47;;
30000;SDS011;16845;48.670;9.000;2023-06-14T05:13:30;9.85;;;5.30;;
30000;SDS011;16845;48.670;9.000;2023-06-14T05:15:57;16.35;;;7.75;;
30000;SDS011;16845;48.670;9.000;2023-06-14T05:18:23;20.17;;;6.68;;
30000;SDS011;16845;48.670;9.000;2023-06-14T05:20:50;7.45;;;5.60;;
30000;SDS011;16845;48.670;9.000;2023-06-14T05:23:18;11.07;;;5.75;;
30000;SDS011;16845;48.670;9.000;2023-06-14T05:25:45;11.15;;;5.78;;
30000;SDS011;16845;48.670;9.000;2023-06-14T05:28:12;11.00;;;5.82;;
30000;SDS011;16845;48.670;9.000;2023-06-14T05:30:38;13.73;;;5.65;;
30000;SDS011;16845;48.670;9.000;2023-06-14T05:33:05;9.13;;;6.30;;
30000;SDS011;16845;48.670;9.000;2023-06-14T05:35:32;8.27;;;5.60;;
30000;SDS011;16845;48.670;9.000;2023-06-14T05:37:58;12.77;;;6.70;;
30000;SDS011;16845;48.670;9.000;2023-06-14T05:40:26;10.10;;;5.33;;
30000;SDS011;16845;48.670;9.000;2023-06-14T05:42:53;8.65;;;5.20;;
30000;SDS011;16845;48.670;9.000;2023-06-14T05:45:19;13.30;;;6.20;;
30000;SDS011;16845;48.670;9.000;2023-06-14T05:47:46;7.72;;;5.25;;
30000;SDS011;16845;48.670;9.000;2023-06-14T05:50:12;8.10;;;5.45;;
30000;SDS011;16845;48.670;9.000;2023-06-14T05:52:39;8.85;;;5.38;;
30000;SDS011;16845;48.670;9.000;2023-06-14T05:55:05;7.05;;;5.47;;
30000;SDS011;16845;48.670;9.000;2023-06-14T05:57:34;13.90;;;5.53;;
30000;SDS011;16845;48.670;9.000;2023-06-14T06:00:00;9.57;;;5.78;;
30000;SDS011;16845;48.670;9.000;2023-06-14T06:02:27;9.00;;;5.13;;
30000;SDS011;16845;48.670;9.000;2023-06-14T06:04:53;9.05;;;5.28;;
30000;SDS011;16845;48.670;9.000;2023-06-14T06:07:20;11.75;;;6.10;;
30000;SDS011;16845;48.670;9.000;2023-06-14T06:09:46;11.82;;;5.68;;
30000;SDS011;16845;48.670;9.000;2023-06-14T06:12:13;10.50;;;4.65;;
30000;SDS011;16845;48.670;9.000;2023-06-14T06:14:41;10.05;;;5.18;;
30000;SDS011;16845;48.670;9.000;2023-06-14T06:17:07;11.32;;;4.47;;
30000;SDS011;16845;48.670;9.000;2023-06-14T06:19:34;9.80;;;4.63;;
30000;SDS011;16845;48.670;9.000;2023-06-14T06:22:01;8.20;;;5.10;;
30000;SDS011;16845;48.670;9.000;2023-06-14T06:24:28;10.02;;;5.00;;
30000;SDS011;16845;48.670;9.000;2023-06-14T06:26:55;10.83;;;5.27;;
30000;SDS011;16845;48.670;9.000;2023-06-14T06:29:22;6.72;;;4.72;;
30000;SDS011;16845;48.670;9.000;2023-06-14T06:31:49;11.70;;;4.93;;
30000;SDS011;16845;48.670;9.000;2023-06-14T06:34:16;10.40;;;4.95;;
30000;SDS011;16845;48.670;9.000;2023-06-14T06:36:42;6.55;;;4.22;;
30000;SDS011;16845;48.670;9.000;2023-06-14T06:39:09;6.70;;;4.53;;
30000;SDS011;16845;48.670;9.000;2023-06-14T06:41:36;10.55;;;4.38;;
30000;SDS011;16845;48.670;9.000;2023-06-14T06:46:30;7.13;;;4.35;;
30000;SDS011;16845;48.670;9.000;2023-06-14T06:48:58;6.30;;;3.90;;
30000;SDS011;16845;48.670;9.000;2023-06-14T06:51:24;7.20;;;3.75;;
30000;SDS011;16845;48.670;9.000;2023-06-14T06:53:52;5.73;;;4.37;;
30000;SDS011;16845;48.670;9.000;2023-06-14T06:56:18;8.02;;;4.22;;
30000;SDS011;16845;48.670;9.000;2023-06-14T06:58:45;5.73;;;3.67;;
30000;SDS011;16845;48.670;9.000;2023-06-14T07:01:12;7.85;;;4.22;;
30000;SDS011;16845;48.670;9.000;2023-06-14T07:03:38;6.43;;;3.83;;
30000;SDS011;16845;48.670;9.000;2023-06-14T07:06:06;6.15;;;3.40;;
30000;SDS011;16845;48.670;9.000;2023-06-14T07:08:33;10.52;;;3.50;;
30000;SDS011;16845;48.670;9.000;2023-06-14T07:10:59;6.47;;;3.42;;
30000;SDS011;16845;48.670;9.000;2023-06-14T07:13:26;7.33;;;3.20;;
30000;SDS011;16845;48.670;9.000;2023-06-14T07:15:53;6.78;;;4.32;;
30000;SDS011;16845;48.670;9.000;2023-06-14T07:18:20;8.07;;;4.03;;
30000;SDS011;16845;48.670;9.000;2023-06-14T07:20:47;6.17;;;3.80;;
30000;SDS011;16845;48.670;9.000;2023-06-14T07:23:14;6.40;;;3.78;;
30000;SDS011;16845;48.670;9.000;2023-06-14T07:25:41;4.60;;;3.35;;
30000;SDS011;16845;48.670;9.000;2023-06-14T07:28:08;7.00;;;4.53;;
30000;SDS011;16845;48.670;9.000;2023-06-14T07:30:34;4.43;;;2.70;;
30000;SDS011;16845;48.670;9.000;2023-06-14T07:33:01;12.70;;;4.20;;
30000;SDS011;16845;48.670;9.000;2023-06-14T07:35:28;6.80;;;4.07;;
30000;SDS011;16845;48.670;9.000;2023-06-14T07:37:54;5.43;;;3.73;;
30000;SDS011;16845;48.670;9.000;2023-06-14T07:40:22;6.93;;;3.78;;
30000;SDS011;16845;48.670;9.000;2023-06-14T07:42:49;7.47;;;3.65;;
30000;SDS011;16845;48.670;9.000;2023-06-14T07:45:15;13.43;;;4.97;;
30000;SDS011;16845;48.670;9.000;2023-06-14T07:47:42;9.15;;;3.38;;
30000;SDS011;16845;48.670;9.000;2023-06-14T07:50:09;4.85;;;3.97;;
30000;SDS011;16845;48.670;9.000;2023-06-14T07:52:36;5.50;;;3.80;;
30000;SDS011;16845;48.670;9.000;2023-06-14T07:55:02;5.32;;;3.75;;
30000;SDS011;16845;48.670;9.000;2023-06-14T07:57:31;9.77;;;3.40;;
30000;SDS011;16845;48.670;9.000;2023-06-14T07:59:57;5.05;;;3.88;;
30000;SDS011;16845;48.670;9.000;2023-06-14T08:02:24;5.43;;;3.73;;
30000;SDS011;16845;48.670;9.000;2023-06-14T08:04:51;5.30;;;3.80;;
30000;SDS011;16845;48.670;9.000;2023-06-14T08:07:17;5.63;;;3.93;;
30000;SDS011;16845;48.670;9.000;2023-06-14T08:09:44;8.30;;;3.78;;
30000;SDS011;16845;48.670;9.000;2023-06-14T08:12:10;6.80;;;3.37;;
30000;SDS011;16845;48.670;9.000;2023-06-14T08:14:38;10.02;;;3.63;;
30000;SDS011;16845;48.670;9.000;2023-06-14T08:17:05;12.35;;;4.13;;
30000;SDS011;16845;48.670;9.000;2023-06-14T08:19:32;5.78;;;4.00;;
30000;SDS011;16845;48.670;9.000;2023-06-14T08:21:58;7.67;;;4.27;;
30000;SDS011;16845;48.670;9.000;2023-06-14T08:24:25;9.27;;;4.27;;
30000;SDS011;16845;48.670;9.000;2023-06-14T08:26:52;5.20;;;4.35;;
30000;SDS011;16845;48.670;9.000;2023-06-14T08:29:18;7.38;;;4.45;;
30000;SDS011;16845;48.670;9.000;2023-06-14T08:31:46;9.10;;;4.00;;
30000;SDS011;16845;48.670;9.000;2023-06-14T08:34:13;6.65;;;3.92;;
30000;SDS011;16845;48.670;9.000;2023-06-14T08:36:39;6.65;;;4.00;;
30000;SDS011;16845;48.670;9.000;2023-06-14T08:39:06;5.88;;;3.60;;
30000;SDS011;16845;48.670;9.000;2023-06-14T08:41:32;6.97;;;4.00;;
30000;SDS011;16845;48.670;9.000;2023-06-14T08:43:59;8.02;;;3.80;;
30000;SDS011;16845;48.670;9.000;2023-06-14T08:46:26;11.88;;;4.68;;
30000;SDS011;16845;48.670;9.000;2023-06-14T08:48:54;5.95;;;3.70;;
30000;SDS011;16845;48.670;9.000;2023-06-14T08:51:22;5.93;;;3.30;;
30000;SDS011;16845;48.670;9.000;2023-06-14T08:53:52;9.00;;;4.07;;
30000;SDS011;16845;48.670;9.000;2023-06-14T08:56:20;7.40;;;3.78;;
30000;SDS011;16845;48.670;9.000;2023-06-14T08:58:47;7.55;;;3.40;;
30000;SDS011;16845;48.670;9.000;2023-06-14T09:01:15;8.00;;;3.65;;
30000;SDS011;16845;48.670;9.000;2023-06-14T09:06:10;6.22;;;4.10;;
30000;SDS011;16845;48.670;9.000;2023-06-14T09:08:36;6.45;;;3.88;;
30000;SDS011;16845;48.670;9.000;2023-06-14T09:11:03;6.50;;;3.80;;
30000;SDS011;16845;48.670;9.000;2023-06-14T09:13:31;12.30;;;4.88;;
30000;SDS011;16845;48.670;9.000;2023-06-14T09:15:58;5.38;;;3.60;;
30000;SDS011;16845;48.670;9.000;2023-06-14T09:18:29;7.05;;;3.63;;
30000;SDS011;16845;48.670;9.000;2023-06-14T09:21:00;8.43;;;3.67;;
30000;SDS011;16845;48.670;9.000;2023-06-14T09:23:28;4.47;;;3.67;;
30000;SDS011;16845;48.670;9.000;2023-06-14T09:25:55;7.72;;;3.83;;
30000;SDS011;16845;48.670;9.000;2023-06-14T09:28:26;4.53;;;3.58;;
30000;SDS011;16845;48.670;9.000;2023-06-14T09:30:53;7.97;;;4.28;;
30000;SDS011;16845;48.670;9.000;2023-06-14T09:33:20;9.73;;;3.65;;
30000;SDS011;16845;48.670;9.000;2023-06-14T09:35:48;8.23;;;3.60;;
30000;SDS011;16845;48.670;9.000;2023-06-14T09:38:17;5.20;;;3.72;;
30000;SDS011;16845;48.670;9.000;2023-06-14T09:40:45;9.25;;;4.32;;
30000;SDS011;16845;48.670;9.000;2023-06-14T09:43:11;7.30;;;3.97;;
30000;SDS011;16845;48.670;9.000;2023-06-14T09:45:38;6.35;;;3.47;;
30000;SDS011;16845;48.670;9.000;2023-06-14T09:48:05;6.47;;;3.45;;
30000;SDS011;16845;48.670;9.000;2023-06-14T09:50:33;6.32;;;3.95;;
30000;SDS011;16845;48.670;9.000;2023-06-14T09:55:29;4.47;;;4.07;;
30000;SDS011;16845;48.670;9.000;2023-06-14T09:57:59;6.70;;;3.47;;
30000;SDS011;16845;48.670;9.000;2023-06-14T10:00:29;10.52;;;3.90;;
30000;SDS011;16845;48.670;9.000;2023-06-14T10:02:58;6.78;;;3.67;;
30000;SDS011;16845;48.670;9.000;2023-06-14T10:05:29;6.68;;;3.53;;
30000;SDS011;16845;48.670;9.000;2023-06-14T10:07:59;7.22;;;3.28;;
30000;SDS011;16845;48.670;9.000;2023-06-14T10:10:30;4.00;;;3.40;;
30000;SDS011;16845;48.670;9.000;2023-06-14T10:15:27;5.95;;;4.18;;
30000;SDS011;16845;48.670;9.000;2023-06-14T10:17:58;6.45;;;3.92;;
30000;SDS011;16845;48.670;9.000;2023-06-14T10:20:28;7.05;;;3.75;;
30000;SDS011;16845;48.670;9.000;2023-06-14T10:23:00;6.47;;;3.22;;
30000;SDS011;16845;48.670;9.000;2023-06-14T10:25:32;6.45;;;3.80;;
30000;SDS011;16845;48.670;9.000;2023-06-14T10:28:03;6.75;;;3.47;;
30000;SDS011;16845;48.670;9.000;2023-06-14T10:30:42;7.47;;;3.65;;
30000;SDS011;16845;48.670;9.000;2023-06-14T10:33:28;5.50;;;3.60;;
30000;SDS011;16845;48.670;9.000;2023-06-14T10:36:06;5.15;;;3.88;;
30000;SDS011;16845;48.670;9.000;2023-06-14T10:38:33;5.40;;;3.40;;
30000;SDS011;16845;48.670;9.000;2023-06-14T10:41:03;4.97;;;2.70;;
30000;SDS011;16845;48.670;9.000;2023-06-14T10:43:30;3.38;;;3.08;;
30000;SDS011;16845;48.670;9.000;2023-06-14T10:46:17;4.05;;;3.15;;
30000;SDS011;16845;48.670;9.000;2023-06-14T10:48:44;7.40;;;4.45;;
30000;SDS011;16845;48.670;9.000;2023-06-14T10:51:17;9.23;;;4.35;;
30000;SDS011;16845;48.670;9.000;2023-06-14T10:53:45;6.22;;;3.80;;
30000;SDS011;16845;48.670;9.000;2023-06-14T10:56:22;8.00;;;4.05;;
30000;SDS011;16845;48.670;9.000;2023-06-14T10:58:50;3.70;;;3.10;;
30000;SDS011;16845;48.670;9.000;2023-06-14T11:01:18;4.68;;;3.20;;
30000;SDS011;16845;48.670;9.000;2023-06-14T11:04:01;10.75;;;3.80;;
30000;SDS011;16845;48.670;9.000;2023-06-14T11:06:36;6.95;;;3.95;;
30000;SDS011;16845;48.670;9.000;2023-06-14T11:12:18;4.38;;;3.67;;
30000;SDS011;16845;48.670;9.000;2023-06-14T11:14:46;6.05;;;3.60;;
30000;SDS011;16845;48.670;9.000;2023-06-14T11:17:14;6.70;;;3.75;;
30000;SDS011;16845;48.670;9.000;2023-06-14T11:19:41;7.38;;;3.60;;
30000;SDS011;16845;48.670;9.000;2023-06-14T11:22:08;3.90;;;3.50;;
30000;SDS011;16845;48.670;9.000;2023-06-14T11:24:34;7.28;;;3.30;;
30000;SDS011;16845;48.670;9.000;2023-06-14T11:27:01;4.85;;;2.72;;
30000;SDS011;16845;48.670;9.000;2023-06-14T11:29:28;3.78;;;3.10;;
30000;SDS011;16845;48.670;9.000;2023-06-14T11:31:55;9.15;;;3.75;;
30000;SDS011;16845;48.670;9.000;2023-06-14T11:34:24;10.95;;;3.08;;
30000;SDS011;16845;48.670;9.000;2023-06-14T11:36:50;3.53;;;2.60;;
30000;SDS011;16845;48.670;9.000;2023-06-14T11:39:17;5.72;;;3.60;;
30000;SDS011;16845;48.670;9.000;2023-06-14T11:41:50;5.38;;;3.40;;
30000;SDS011;16845;48.670;9.000;2023-06-14T11:44:16;5.25;;;3.22;;
30000;SDS011;16845;48.670;9.000;2023-06-14T11:46:43;6.68;;;3.75;;
30000;SDS011;16845;48.670;9.000;2023-06-14T11:49:10;4.10;;;3.50;;
30000;SDS011;16845;48.670;9.000;2023-06-14T11:51:38;5.82;;;3.90;;
30000;SDS011;16845;48.670;9.000;2023-06-14T11:54:06;4.68;;;3.50;;
30000;SDS011;16845;48.670;9.000;2023-06-14T11:56:32;5.07;;;3.17;;
30000;SDS011;16845;48.670;9.000;2023-06-14T12:01:26;5.05;;;3.20;;
30000;SDS011;16845;48.670;9.000;2023-06-14T12:03:53;5.82;;;3.90;;
30000;SDS011;16845;48.670;9.000;2023-06-14T12:06:25;9.93;;;3.88;;
30000;SDS011;16845;48.670;9.000;2023-06-14T12:08:55;5.68;;;3.40;;
30000;SDS011;16845;48.670;9.000;2023-06-14T12:11:21;5.90;;;4.10;;
30000;SDS011;16845;48.670;9.000;2023-06-14T12:13:48;4.75;;;3.20;;
30000;SDS011;16845;48.670;9.000;2023-06-14T12:16:15;8.90;;;3.50;;
30000;SDS011;16845;48.670;9.000;2023-06-14T12:18:41;8.27;;;3.60;;
30000;SDS011;16845;48.670;9.000;2023-06-14T12:21:08;8.27;;;3.03;;
30000;SDS011;16845;48.670;9.000;2023-06-14T12:23:39;4.18;;;3.25;;
30000;SDS011;16845;48.670;9.000;2023-06-14T12:26:11;8.82;;;3.75;;
30000;SDS011;16845;48.670;9.000;2023-06-14T12:28:39;6.35;;;3.17;;
30000;SDS011;16845;48.670;9.000;2023-06-14T12:31:06;9.85;;;2.85;;
30000;SDS011;16845;48.670;9.000;2023-06-14T12:33:33;5.18;;;3.00;;
30000;SDS011;16845;48.670;9.000;2023-06-14T12:35:59;4.88;;;3.50;;
30000;SDS011;16845;48.670;9.000;2023-06-14T12:38:29;13.98;;;3.53;;
30000;SDS011;16845;48.670;9.000;2023-06-14T12:40:55;4.53;;;3.05;;
30000;SDS011;16845;48.670;9.000;2023-06-14T12:43:23;4.40;;;2.75;;
30000;SDS011;16845;48.670;9.000;2023-06-14T12:45:49;6.05;;;3.15;;
30000;SDS011;16845;48.670;9.000;2023-06-14T12:50:42;8.60;;;3.58;;
30000;SDS011;16845;48.670;9.000;2023-06-14T12:55:35;4.63;;;3.05;;
30000;SDS011;16845;48.670;9.000;2023-06-14T12:58:02;6.60;;;3.53;;
30000;SDS011;16845;48.670;9.000;2023-06-14T13:00:30;8.63;;;4.00;;
30000;SDS011;16845;48.670;9.000;2023-06-14T13:02:56;9.45;;;2.97;;
30000;SDS011;16845;48.670;9.000;2023-06-14T13:05:23;5.00;;;2.50;;
30000;SDS011;16845;48.670;9.000;2023-06-14T13:07:50;6.93;;;3.25;;
30000;SDS011;16845;48.670;9.000;2023-06-14T13:10:17;8.07;;;2.92;;
30000;SDS011;16845;48.670;9.000;2023-06-14T13:12:44;4.40;;;3.00;;
30000;SDS011;16845;48.670;9.000;2023-06-14T13:15:10;3.15;;;2.55;;
30000;SDS011;16845;48.670;9.000;2023-06-14T13:17:38;4.22;;;2.60;;
30000;SDS011;16845;48.670;9.000;2023-06-14T13:20:05;6.80;;;3.33;;
30000;SDS011;16845;48.670;9.000;2023-06-14T13:22:32;4.20;;;3.20;;
30000;SDS011;16845;48.670;9.000;2023-06-14T13:24:58;3.17;;;2.88;;
30000;SDS011;16845;48.670;9.000;2023-06-14T13:27:25;10.15;;;3.20;;
30000;SDS011;16845;48.670;9.000;2023-06-14T13:29:52;4.43;;;3.42;;
30000;SDS011;16845;48.670;9.000;2023-06-14T13:32:20;6.13;;;3.17;;
30000;SDS011;16845;48.670;9.000;2023-06-14T13:34:48;4.38;;;3.25;;
30000;SDS011;16845;48.670;9.000;2023-06-14T13:37:16;4.10;;;2.75;;
30000;SDS011;16845;48.670;9.000;2023-06-14T13:39:42;4.47;;;3.40;;
30000;SDS011;16845;48.670;9.000;2023-06-14T13:42:09;6.70;;;3.40;;
30000;SDS011;16845;48.670;9.000;2023-06-14T13:44:35;7.65;;;3.25;;
30000;SDS011;16845;48.670;9.000;2023-06-14T13:47:02;8.10;;;3.42;;
30000;SDS011;16845;48.670;9.000;2023-06-14T13:51:57;4.30;;;3.33;;
30000;SDS011;16845;48.670;9.000;2023-06-14T13:54:24;7.65;;;3.20;;
30000;SDS011;16845;48.670;9.000;2023-06-14T13:56:50;12.85;;;3.15;;
30000;SDS011;16845;48.670;9.000;2023-06-14T13:59:17;6.43;;;3.15;;
30000;SDS011;16845;48.670;9.000;2023-06-14T14:01:43;8.40;;;3.42;;
30000;SDS011;16845;48.670;9.000;2023-06-14T14:04:10;7.85;;;3.28;;
30000;SDS011;16845;48.670;9.000;2023-06-14T14:06:37;9.45;;;3.40;;
30000;SDS011;16845;48.670;9.000;2023-06-14T14:09:05;7.50;;;2.85;;
30000;SDS011;16845;48.670;9.000;2023-06-14T14:11:31;4.13;;;3.08;;
30000;SDS011;16845;48.670;9.000;2023-06-14T14:13:57;4.75;;;2.97;;
30000;SDS011;16845;48.670;9.000;2023-06-14T14:16:24;4.30;;;3.28;;
30000;SDS011;16845;48.670;9.000;2023-06-14T14:18:51;3.55;;;2.95;;
30000;SDS011;16845;48.670;9.000;2023-06-14T14:21:17;4.88;;;2.95;;
30000;SDS011;16845;48.670;9.000;2023-06-14T14:23:44;5.57;;;3.33;;
30000;SDS011;16845;48.670;9.000;2023-06-14T14:26:12;4.70;;;3.35;;
30000;SDS011;16845;48.670;9.000;2023-06-14T14:28:38;9.32;;;3.03;;
30000;SDS011;16845;48.670;9.000;2023-06-14T14:31:05;6.63;;;3.25;;
30000;SDS011;16845;48.670;9.000;2023-06-14T14:33:31;3.50;;;3.20;;
30000;SDS011;16845;48.670;9.000;2023-06-14T14:35:58;6.30;;;3.42;;
30000;SDS011;16845;48.670;9.000;2023-06-14T14:38:24;4.72;;;2.90;;
30000;SDS011;16845;48.670;9.000;2023-06-14T14:40:51;6.07;;;3.35;;
30000;SDS011;16845;48.670;9.000;2023-06-14T14:43:19;4.90;;;3.33;;
30000;SDS011;16845;48.670;9.000;2023-06-14T14:45:45;5.97;;;3.33;;
30000;SDS011;16845;48.670;9.000;2023-06-14T14:48:12;6.43;;;3.30;;
30000;SDS011;16845;48.670;9.000;2023-06-14T14:50:38;8.80;;;3.45;;
30000;SDS011;16845;48.670;9.000;2023-06-14T14:53:05;6.68;;;2.95;;
30000;SDS011;16845;48.670;9.000;2023-06-14T14:55:32;6.53;;;3.45;;
30000;SDS011;16845;48.670;9.000;2023-06-14T14:57:58;4.78;;;2.70;;
30000;SDS011;16845;48.670;9.000;2023-06-14T15:00:26;6.57;;;4.60;;
30000;SDS011;16845;48.670;9.000;2023-06-14T15:02:53;4.18;;;3.47;;
30000;SDS011;16845;48.670;9.000;2023-06-14T15:05:19;5.40;;;3.67;;
30000;SDS011;16845;48.670;9.000;2023-06-14T15:07:46;7.00;;;3.20;;
30000;SDS011;16845;48.670;9.000;2023-06-14T15:10:12;7.18;;;3.00;;
30000;SDS011;16845;48.670;9.000;2023-06-14T15:12:39;9.13;;;3.58;;
30000;SDS011;16845;48.670;9.000;2023-06-14T15:15:06;5.95;;;3.55;;